Time;durP1;ratioP1;P1;durP2;ratioP2;P2;SDS_P1;SDS_P2;PMS_P1;PMS_P2;Temp;Humidity;BMP_temperature;BMP_pressure;BME280_temperature;BME280_humidity;BME280_pressure;Samples;Min_cycle;Max_cycle;Signal;HPM_P1;HPM_P2
2022/03/18 00:00:25;;;;;;;26.98;7.78;;;6.90;99.90;;;;;;5031228;28;20041;-58
2022/03/18 00:02:53;;;;;;;22.80;5.20;;;6.90;99.90;;;;;;5030490;28;20167;-58
2022/03/18 00:05:22;;;;;;;21.75;5.80;;;6.80;99.90;;;;;;5002325;28;20053;-57
2022/03/18 00:07:50;;;;;;;26.63;7.75;;;6.80;99.90;;;;;;5031079;28;20041;-58
2022/03/18 00:10:18;;;;;;;51.67;10.32;;;6.70;99.90;;;;;;5031350;28;20299;-57
2022/03/18 00:12:47;;;;;;;29.85;6.38;;;6.70;99.90;;;;;;5031318;28;20034;-58
2022/03/18 00:15:15;;;;;;;28.63;6.75;;;6.60;99.90;;;;;;5031597;28;20060;-57
2022/03/18 00:17:44;;;;;;;23.83;5.78;;;6.60;99.90;;;;;;5031246;28;20045;-57
2022/03/18 00:20:13;;;;;;;23.63;6.40;;;6.60;99.90;;;;;;5030057;28;20061;-57
2022/03/18 00:22:43;;;;;;;29.00;6.60;;;6.60;99.90;;;;;;5031075;28;20060;-58
2022/03/18 00:25:12;;;;;;;20.98;8.15;;;6.60;99.90;;;;;;5031236;28;20049;-57
2022/03/18 00:27:42;;;;;;;26.83;7.20;;;6.70;99.90;;;;;;5030910;28;20046;-57
2022/03/18 00:30:12;;;;;;;27.27;7.75;;;6.70;99.90;;;;;;5015637;28;20057;-57
2022/03/18 00:32:44;;;;;;;35.08;8.70;;;6.70;99.90;;;;;;5031134;28;20072;-57
2022/03/18 00:35:31;;;;;;;33.78;9.55;;;6.80;99.90;;;;;;5030364;28;20052;-58
2022/03/18 00:38:02;;;;;;;25.67;6.82;;;6.80;99.90;;;;;;5031122;28;20037;-57
2022/03/18 00:40:30;;;;;;;30.52;8.43;;;6.80;99.90;;;;;;5030659;28;20041;-57
2022/03/18 00:43:00;;;;;;;28.73;6.90;;;6.80;99.90;;;;;;4996706;28;20049;-58
2022/03/18 00:45:29;;;;;;;29.27;7.82;;;6.80;99.90;;;;;;5030574;28;20048;-58
2022/03/18 00:53:30;;;;;;;39.25;9.18;;;6.70;99.90;;;;;;5018798;28;20060;-58
2022/03/18 00:55:58;;;;;;;25.52;7.57;;;6.60;99.90;;;;;;5012854;28;20053;-58
2022/03/18 00:58:26;;;;;;;27.17;8.52;;;6.50;99.90;;;;;;5023442;28;20052;-57
2022/03/18 01:00:54;;;;;;;28.33;6.82;;;6.50;99.90;;;;;;5029659;28;20033;-57
2022/03/18 01:03:22;;;;;;;35.08;7.30;;;6.40;99.90;;;;;;5014187;28;20511;-58
2022/03/18 01:05:50;;;;;;;25.77;7.78;;;6.30;99.90;;;;;;5026532;28;20054;-57
2022/03/18 01:08:18;;;;;;;30.05;6.88;;;6.20;99.90;;;;;;5020253;28;20056;-57
2022/03/18 01:10:45;;;;;;;32.33;6.75;;;6.10;99.90;;;;;;5030268;28;20049;-58
2022/03/18 01:13:13;;;;;;;26.35;6.35;;;6.00;99.90;;;;;;5029911;28;20041;-58
2022/03/18 01:15:41;;;;;;;20.15;5.80;;;5.90;99.90;;;;;;5016308;28;20497;-58
2022/03/18 01:18:08;;;;;;;25.67;6.00;;;5.90;99.90;;;;;;5021446;28;20052;-58
2022/03/18 01:20:36;;;;;;;23.95;4.97;;;5.80;99.90;;;;;;5028499;28;20519;-59
2022/03/18 01:23:06;;;;;;;29.38;5.97;;;5.70;99.90;;;;;;5029590;28;20060;-58
2022/03/18 01:25:34;;;;;;;17.17;6.20;;;5.60;99.90;;;;;;5030373;28;20394;-58
2022/03/18 01:28:02;;;;;;;21.05;5.80;;;5.60;99.90;;;;;;5029301;28;20038;-58
2022/03/18 01:30:30;;;;;;;23.23;6.35;;;5.50;99.90;;;;;;5029787;28;20405;-58
2022/03/18 01:33:00;;;;;;;31.73;7.15;;;5.40;99.90;;;;;;5027306;28;20042;-58
2022/03/18 01:35:28;;;;;;;;;;;5.30;99.90;;;;;;5028610;28;20053;-58
2022/03/18 01:37:56;;;;;;;29.08;6.22;;;5.20;99.90;;;;;;5029044;28;19952;-59
2022/03/18 01:40:24;;;;;;;27.08;6.20;;;5.20;99.90;;;;;;5029171;28;20043;-59
2022/03/18 01:42:51;;;;;;;24.40;5.47;;;5.10;99.90;;;;;;5029597;28;20049;-57
2022/03/18 01:45:19;;;;;;;17.85;6.00;;;5.10;99.90;;;;;;5029594;28;20540;-58
2022/03/18 01:47:47;;;;;;;23.10;5.93;;;5.00;99.90;;;;;;5029730;28;20049;-58
2022/03/18 01:50:15;;;;;;;23.80;5.57;;;5.00;99.90;;;;;;5028966;28;20052;-58
2022/03/18 01:52:45;;;;;;;20.30;5.78;;;5.10;99.90;;;;;;5029278;28;20060;-58
2022/03/18 01:55:16;;;;;;;33.63;7.47;;;5.10;99.90;;;;;;5029464;28;20397;-58
2022/03/18 01:57:45;;;;;;;26.35;6.45;;;5.00;99.90;;;;;;5029081;28;20045;-58
2022/03/18 02:00:13;;;;;;;24.02;6.20;;;5.10;99.90;;;;;;5028594;28;20057;-58
2022/03/18 02:02:44;;;;;;;15.65;5.75;;;5.10;99.90;;;;;;5028739;28;20061;-57
2022/03/18 02:05:12;;;;;;;22.77;6.30;;;5.20;99.90;;;;;;5018676;28;20421;-57
2022/03/18 02:07:41;;;;;;;17.88;5.47;;;5.20;99.90;;;;;;5027483;28;20065;-58
2022/03/18 02:10:09;;;;;;;26.17;6.80;;;5.30;99.90;;;;;;5027686;28;20507;-59
2022/03/18 02:12:37;;;;;;;24.60;6.82;;;5.40;99.90;;;;;;5009781;28;20049;-58
2022/03/18 02:15:05;;;;;;;21.33;5.35;;;5.40;99.90;;;;;;5003782;28;20397;-59
2022/03/18 02:17:33;;;;;;;18.38;5.05;;;5.50;99.90;;;;;;5028760;28;20050;-59
2022/03/18 02:20:00;;;;;;;24.42;6.10;;;5.50;99.90;;;;;;5017968;28;20590;-58
2022/03/18 02:22:35;;;;;;;21.77;4.95;;;5.60;99.90;;;;;;5025406;28;20041;-58
2022/03/18 02:25:04;;;;;;;23.08;6.43;;;5.60;99.90;;;;;;5023557;28;20050;-58
2022/03/18 02:27:31;;;;;;;20.15;4.95;;;5.50;99.90;;;;;;4997179;28;20412;-59
2022/03/18 02:30:00;;;;;;;21.10;5.65;;;5.50;99.90;;;;;;5028650;28;20057;-59
2022/03/18 02:32:28;;;;;;;24.45;5.60;;;5.50;99.90;;;;;;5028648;28;20056;-59
2022/03/18 02:34:56;;;;;;;23.58;6.53;;;5.50;99.90;;;;;;4997986;28;20074;-58
2022/03/18 02:37:24;;;;;;;23.58;5.63;;;5.40;99.90;;;;;;5031933;28;20052;-59
2022/03/18 02:39:52;;;;;;;18.00;4.85;;;5.30;99.90;;;;;;5016022;28;20037;-58
2022/03/18 02:42:19;;;;;;;27.15;6.90;;;5.30;99.90;;;;;;5030845;28;20053;-59
2022/03/18 02:44:48;;;;;;;19.42;5.15;;;5.20;99.90;;;;;;5031978;28;20053;-59
2022/03/18 02:47:17;;;;;;;25.27;6.13;;;5.10;99.90;;;;;;5029042;28;20041;-59
2022/03/18 02:49:44;;;;;;;22.67;6.32;;;5.10;99.90;;;;;;5031519;28;20049;-59
2022/03/18 02:52:12;;;;;;;17.80;5.03;;;5.00;99.90;;;;;;5032010;28;20041;-59
2022/03/18 02:54:40;;;;;;;20.73;5.90;;;4.90;99.90;;;;;;5032113;28;20049;-59
2022/03/18 02:57:09;;;;;;;15.45;6.00;;;4.80;99.90;;;;;;5031576;28;20045;-59
2022/03/18 02:59:36;;;;;;;26.23;5.97;;;4.80;99.90;;;;;;5030515;28;20049;-60
2022/03/18 03:02:05;;;;;;;20.17;6.90;;;4.70;99.90;;;;;;5031845;28;20056;-60
2022/03/18 03:04:32;;;;;;;21.33;6.97;;;4.60;99.90;;;;;;5031101;28;20056;-59
2022/03/18 03:08:01;;;;;;;24.40;5.57;;;4.50;99.90;;;;;;5031318;28;20052;-58
2022/03/18 03:09:58;;;;;;;27.85;6.88;;;4.50;99.90;;;;;;5018492;28;20049;-58
2022/03/18 03:12:25;;;;;;;26.85;7.50;;;4.40;99.90;;;;;;5031194;28;20049;-58
2022/03/18 03:14:54;;;;;;;24.83;6.47;;;4.30;99.90;;;;;;5026654;28;20045;-58
2022/03/18 03:17:21;;;;;;;24.80;6.97;;;4.30;99.90;;;;;;5011942;28;20629;-59
2022/03/18 03:19:49;;;;;;;22.23;6.82;;;4.30;99.90;;;;;;5031299;28;20397;-59
2022/03/18 03:22:16;;;;;;;19.08;6.85;;;4.20;99.90;;;;;;5017660;28;20056;-58
2022/03/18 03:24:44;;;;;;;28.63;7.03;;;4.20;99.90;;;;;;5011731;28;20038;-58
2022/03/18 03:27:12;;;;;;;23.27;7.13;;;4.10;99.90;;;;;;5026634;28;20056;-58
2022/03/18 03:29:39;;;;;;;21.92;6.55;;;4.10;99.90;;;;;;5031223;28;20050;-59
2022/03/18 03:32:07;;;;;;;21.73;7.20;;;4.10;99.90;;;;;;5031518;28;20049;-59
2022/03/18 03:34:35;;;;;;;25.08;7.43;;;4.10;99.90;;;;;;5028700;28;20041;-58
2022/03/18 03:37:02;;;;;;;28.17;6.63;;;4.00;99.90;;;;;;5031186;28;20050;-58
2022/03/18 03:39:30;;;;;;;21.27;6.30;;;4.00;99.90;;;;;;5030651;28;20042;-58
2022/03/18 03:41:58;;;;;;;23.80;5.95;;;3.90;99.90;;;;;;5031052;28;20508;-58
2022/03/18 03:44:25;;;;;;;25.48;6.55;;;3.90;99.90;;;;;;5027682;28;20390;-57
2022/03/18 03:46:53;;;;;;;19.30;6.03;;;3.90;99.90;;;;;;5011618;28;20053;-57
2022/03/18 03:49:20;;;;;;;20.98;5.75;;;3.80;99.90;;;;;;4994252;28;20049;-58
2022/03/18 03:51:48;;;;;;;22.60;6.95;;;3.90;99.90;;;;;;5023128;28;20045;-58
2022/03/18 03:54:15;;;;;;;17.02;5.68;;;3.80;99.90;;;;;;5031429;28;20045;-58
2022/03/18 03:56:43;;;;;;;26.67;7.30;;;3.80;99.90;;;;;;5031109;28;20403;-59
2022/03/18 03:59:11;;;;;;;19.10;6.22;;;3.80;99.90;;;;;;5030720;28;20045;-58
2022/03/18 04:01:38;;;;;;;26.10;6.90;;;3.80;99.90;;;;;;5030345;28;20050;-59
2022/03/18 04:04:06;;;;;;;26.08;7.03;;;3.70;99.90;;;;;;5030101;28;20060;-58
2022/03/18 04:06:34;;;;;;;24.42;7.25;;;3.60;99.90;;;;;;5031257;28;20046;-58
2022/03/18 04:09:02;;;;;;;26.67;7.15;;;3.60;99.90;;;;;;5030972;28;20046;-58
2022/03/18 04:11:30;;;;;;;28.38;8.15;;;3.60;99.90;;;;;;5030704;28;20054;-58
2022/03/18 04:13:57;;;;;;;29.33;6.93;;;3.60;99.90;;;;;;5016834;28;20053;-58
2022/03/18 04:16:25;;;;;;;28.80;7.63;;;3.60;99.90;;;;;;5030940;28;20057;-58
2022/03/18 04:18:52;;;;;;;30.67;6.53;;;3.50;99.90;;;;;;5031195;28;20478;-57
2022/03/18 04:21:20;;;;;;;25.02;6.88;;;3.50;99.90;;;;;;5030906;28;20049;-57
2022/03/18 04:23:48;;;;;;;27.75;7.22;;;3.40;99.90;;;;;;5030942;28;20038;-57
2022/03/18 04:26:15;;;;;;;17.02;6.80;;;3.40;99.90;;;;;;5030367;28;20046;-57
2022/03/18 04:28:44;;;;;;;22.23;6.68;;;3.40;99.90;;;;;;5030381;28;20053;-59
2022/03/18 04:31:12;;;;;;;24.80;8.32;;;3.30;99.90;;;;;;5030454;28;20052;-57
2022/03/18 04:33:40;;;;;;;37.00;8.27;;;3.30;99.90;;;;;;5030840;28;20042;-58
2022/03/18 04:36:07;;;;;;;23.48;7.13;;;3.30;99.90;;;;;;5030917;28;20060;-57
2022/03/18 04:38:35;;;;;;;23.80;7.25;;;3.30;99.90;;;;;;5030623;28;20066;-57
2022/03/18 04:41:03;;;;;;;28.13;8.10;;;3.20;99.90;;;;;;5034249;28;20041;-58
2022/03/18 04:43:31;;;;;;;19.33;6.15;;;3.20;99.90;;;;;;5033912;28;20037;-59
2022/03/18 04:45:58;;;;;;;26.20;8.40;;;3.20;99.90;;;;;;5034082;28;20045;-59
2022/03/18 04:48:26;;;;;;;26.48;6.72;;;3.10;99.90;;;;;;5034046;28;20048;-59
2022/03/18 04:50:54;;;;;;;25.95;7.47;;;3.10;99.90;;;;;;5033841;28;20049;-58
2022/03/18 04:53:21;;;;;;;27.05;7.43;;;3.10;99.90;;;;;;5016471;28;20049;-60
2022/03/18 04:55:49;;;;;;;24.02;7.80;;;3.10;99.90;;;;;;5033980;28;20626;-59
2022/03/18 04:58:17;;;;;;;20.20;7.10;;;3.00;99.90;;;;;;5033630;28;20042;-58
2022/03/18 05:00:45;;;;;;;36.13;7.55;;;2.90;99.90;;;;;;5033668;28;20033;-60
2022/03/18 05:03:13;;;;;;;28.95;7.55;;;2.90;99.90;;;;;;5033886;28;20052;-59
2022/03/18 05:05:40;;;;;;;52.75;7.55;;;2.90;99.90;;;;;;5033254;28;20038;-60
2022/03/18 05:08:09;;;;;;;23.55;6.30;;;2.90;99.90;;;;;;5033542;28;20053;-60
2022/03/18 05:10:37;;;;;;;23.27;6.53;;;2.80;99.90;;;;;;5033805;28;20046;-60
2022/03/18 05:13:04;;;;;;;19.45;7.20;;;2.80;99.90;;;;;;5033717;28;20523;-60
2022/03/18 05:15:32;;;;;;;23.50;7.88;;;2.70;99.90;;;;;;5000734;28;20049;-58
2022/03/18 05:18:00;;;;;;;30.23;7.95;;;2.70;99.90;;;;;;5033338;28;20041;-60
2022/03/18 05:20:29;;;;;;;19.15;7.55;;;2.60;99.90;;;;;;5033080;28;20041;-59
2022/03/18 05:22:57;;;;;;;28.88;8.52;;;2.60;99.90;;;;;;5033679;28;20049;-59
2022/03/18 05:25:24;;;;;;;44.45;10.68;;;2.60;99.90;;;;;;5033697;28;20049;-60
2022/03/18 05:27:53;;;;;;;32.88;8.75;;;2.60;99.90;;;;;;5032842;28;20041;-60
2022/03/18 05:30:21;;;;;;;32.67;8.23;;;2.60;99.90;;;;;;5033326;28;20405;-58
2022/03/18 05:32:51;;;;;;;36.75;9.63;;;2.50;99.90;;;;;;5033202;28;20120;-59
2022/03/18 05:35:20;;;;;;;37.25;10.18;;;2.50;99.90;;;;;;5029715;28;20037;-59
2022/03/18 05:37:48;;;;;;;33.47;9.93;;;2.50;99.90;;;;;;5033228;28;20050;-59
2022/03/18 05:40:18;;;;;;;49.63;10.82;;;2.50;99.90;;;;;;5032941;28;20313;-59
2022/03/18 05:42:46;;;;;;;35.43;11.67;;;2.50;99.90;;;;;;5032973;28;20497;-58
2022/03/18 05:45:15;;;;;;;31.52;8.95;;;2.50;99.90;;;;;;5016015;28;20302;-59
2022/03/18 05:47:45;;;;;;;40.45;10.75;;;2.60;99.90;;;;;;5024411;28;20049;-58
2022/03/18 05:50:15;;;;;;;32.85;10.52;;;2.60;99.90;;;;;;5010399;28;20042;-59
2022/03/18 05:52:45;;;;;;;38.55;9.23;;;2.70;99.90;;;;;;5028839;28;20049;-58
2022/03/18 05:55:15;;;;;;;106.35;12.30;;;2.60;99.90;;;;;;5011640;28;20049;-59
2022/03/18 05:57:47;;;;;;;135.57;13.18;;;2.70;99.90;;;;;;5029256;28;20037;-59
2022/03/18 06:00:15;;;;;;;61.40;10.05;;;2.70;99.90;;;;;;5028815;28;20045;-58
2022/03/18 06:02:45;;;;;;;62.90;10.13;;;2.70;99.90;;;;;;5018777;28;20033;-58
2022/03/18 06:05:13;;;;;;;;;;;2.80;99.90;;;;;;5010580;28;20515;-58
2022/03/18 06:07:40;;;;;;;47.65;10.48;;;2.70;99.90;;;;;;5025952;28;19927;-58
2022/03/18 06:12:54;;;;;;;44.65;10.20;;;2.70;99.90;;;;;;5025877;28;20065;-59
2022/03/18 06:15:22;;;;;;;73.55;12.75;;;2.70;99.90;;;;;;5020458;28;20053;-58
2022/03/18 06:17:49;;;;;;;56.47;11.38;;;2.70;99.90;;;;;;5028946;28;20485;-58
2022/03/18 06:20:20;;;;;;;61.20;12.95;;;2.70;99.90;;;;;;5011792;28;20060;-58
2022/03/18 06:22:51;;;;;;;84.90;13.30;;;2.70;99.90;;;;;;5028292;28;20055;-58
2022/03/18 06:25:18;;;;;;;67.00;12.23;;;2.70;99.90;;;;;;5028390;28;20412;-59
2022/03/18 06:27:47;;;;;;;75.63;13.50;;;2.70;99.90;;;;;;5025351;28;20052;-59
2022/03/18 06:30:15;;;;;;;66.70;13.00;;;2.80;99.90;;;;;;5022036;28;20300;-58
2022/03/18 06:32:44;;;;;;;53.35;12.48;;;2.80;99.90;;;;;;5023706;28;20413;-60
2022/03/18 06:35:12;;;;;;;66.38;12.95;;;2.90;99.90;;;;;;5024852;28;20057;-58
2022/03/18 06:37:43;;;;;;;107.13;14.68;;;2.90;99.90;;;;;;5022737;28;20042;-58
2022/03/18 06:40:11;;;;;;;97.80;15.88;;;3.00;99.90;;;;;;5028401;28;20060;-57
2022/03/18 06:42:38;;;;;;;144.05;17.65;;;3.00;99.90;;;;;;5028147;28;20044;-58
2022/03/18 06:45:07;;;;;;;139.20;14.80;;;3.10;99.90;;;;;;5028065;28;20041;-58
2022/03/18 06:47:35;;;;;;;54.83;10.45;;;3.10;99.90;;;;;;5028126;28;20060;-58
2022/03/18 06:50:03;;;;;;;81.07;12.82;;;3.20;99.90;;;;;;5027161;28;20064;-59
2022/03/18 06:52:30;;;;;;;153.35;16.38;;;3.20;99.90;;;;;;5016865;28;20053;-57
2022/03/18 06:54:59;;;;;;;118.25;15.95;;;3.20;99.90;;;;;;5023322;28;20069;-58
2022/03/18 06:57:26;;;;;;;124.28;16.83;;;3.20;99.90;;;;;;5024900;28;20225;-58
2022/03/18 06:59:54;;;;;;;156.82;14.48;;;3.20;99.90;;;;;;5008383;28;20489;-58
2022/03/18 07:02:22;;;;;;;203.55;19.27;;;3.30;99.90;;;;;;5022857;28;20064;-58
2022/03/18 07:04:55;;;;;;;184.90;19.85;;;3.30;99.90;;;;;;5025136;28;20060;-57
2022/03/18 07:07:22;;;;;;;106.55;14.57;;;3.30;99.90;;;;;;5024071;28;20061;-59
2022/03/18 07:09:50;;;;;;;93.57;14.13;;;3.30;99.90;;;;;;5026074;28;20044;-60
2022/03/18 07:12:18;;;;;;;65.50;11.77;;;3.20;99.90;;;;;;5027774;28;20045;-58
2022/03/18 07:14:46;;;;;;;76.18;13.65;;;3.30;99.90;;;;;;5027864;28;20041;-58
2022/03/18 07:20:03;;;;;;;34.88;10.82;;;3.30;99.90;;;;;;5024194;28;20041;-59
2022/03/18 07:22:30;;;;;;;51.13;11.57;;;3.30;99.90;;;;;;5002133;28;20061;-58
2022/03/18 07:24:58;;;;;;;55.30;14.23;;;3.40;99.90;;;;;;5028558;28;20388;-59
2022/03/18 07:27:26;;;;;;;44.20;12.82;;;3.40;99.90;;;;;;5024294;28;20068;-58
2022/03/18 07:29:53;;;;;;;34.03;11.65;;;3.40;99.90;;;;;;5024815;28;20419;-58
2022/03/18 07:32:21;;;;;;;32.83;11.98;;;3.50;99.90;;;;;;5027324;28;20056;-58
2022/03/18 07:34:49;;;;;;;29.98;12.05;;;3.50;99.90;;;;;;5024779;28;20394;-59
2022/03/18 07:37:16;;;;;;;27.10;11.70;;;3.50;99.90;;;;;;5024052;28;20057;-58
2022/03/18 07:39:44;;;;;;;34.22;12.73;;;3.60;99.90;;;;;;5027337;28;20045;-58
2022/03/18 07:42:13;;;;;;;30.52;12.40;;;3.60;99.90;;;;;;5027404;28;20049;-58
2022/03/18 07:44:40;;;;;;;32.85;11.65;;;3.70;99.90;;;;;;5027793;28;20053;-59
2022/03/18 07:47:08;;;;;;;33.78;12.98;;;3.80;99.90;;;;;;5028105;28;20064;-58
2022/03/18 07:49:36;;;;;;;31.67;12.48;;;3.90;99.90;;;;;;5027680;28;20037;-57
2022/03/18 07:52:04;;;;;;;33.17;13.15;;;3.90;99.90;;;;;;5026976;28;20048;-60
2022/03/18 07:54:32;;;;;;;37.83;14.25;;;4.00;99.90;;;;;;5023482;28;20056;-59
2022/03/18 07:56:59;;;;;;;40.60;14.75;;;4.10;99.90;;;;;;5027420;28;20052;-59
2022/03/18 07:59:27;;;;;;;50.40;17.15;;;4.20;99.90;;;;;;5027122;28;20052;-58
2022/03/18 08:01:54;;;;;;;51.10;17.75;;;4.30;99.90;;;;;;5024755;28;20047;-58
2022/03/18 08:04:22;;;;;;;48.85;18.60;;;4.40;99.90;;;;;;5022925;28;20045;-59
2022/03/18 08:06:50;;;;;;;43.83;18.58;;;4.50;99.90;;;;;;5024777;28;20050;-58
2022/03/18 08:09:18;;;;;;;56.80;17.88;;;4.60;99.90;;;;;;5025936;28;20052;-59
2022/03/18 08:11:45;;;;;;;65.25;18.83;;;4.70;99.90;;;;;;5026709;28;20049;-59
2022/03/18 08:14:13;;;;;;;45.15;17.80;;;4.90;99.90;;;;;;5027613;28;20053;-59
2022/03/18 08:16:42;;;;;;;46.40;17.35;;;5.00;99.90;;;;;;5026230;28;20044;-58
2022/03/18 08:19:10;;;;;;;48.40;17.35;;;5.10;99.90;;;;;;5026819;28;20045;-58
2022/03/18 08:21:38;;;;;;;49.28;19.20;;;5.20;99.90;;;;;;5022922;28;20425;-59
2022/03/18 08:24:07;;;;;;;48.63;17.38;;;5.30;99.90;;;;;;5024932;28;20053;-59
2022/03/18 08:26:36;;;;;;;53.70;18.45;;;5.40;99.90;;;;;;5017858;28;20382;-59
2022/03/18 08:29:05;;;;;;;56.75;19.48;;;5.50;99.90;;;;;;5028154;28;20060;-58
2022/03/18 08:31:33;;;;;;;57.20;18.65;;;5.60;99.90;;;;;;5031352;28;20370;-58
2022/03/18 08:34:01;;;;;;;48.47;18.98;;;5.70;99.90;;;;;;5031124;28;20041;-58
2022/03/18 08:36:30;;;;;;;52.47;18.33;;;5.80;99.90;;;;;;5031234;28;20049;-58
2022/03/18 08:38:58;;;;;;;54.88;17.85;;;5.90;99.90;;;;;;5013737;28;20091;-58
2022/03/18 08:41:25;;;;;;;45.55;19.10;;;6.00;99.90;;;;;;5020260;28;20042;-58
2022/03/18 08:43:53;;;;;;;47.83;17.05;;;6.10;99.90;;;;;;5004390;28;20056;-57
2022/03/18 08:46:20;;;;;;;42.22;16.55;;;6.20;99.90;;;;;;5013635;28;20045;-58
2022/03/18 08:48:48;;;;;;;44.38;15.85;;;6.30;99.90;;;;;;5031046;28;20051;-58
2022/03/18 08:51:16;;;;;;;43.50;15.75;;;6.40;99.90;;;;;;5031131;28;20042;-59
2022/03/18 08:53:44;;;;;;;45.40;15.50;;;6.60;99.90;;;;;;4996977;28;20049;-59
2022/03/18 08:56:11;;;;;;;45.60;16.00;;;6.70;99.90;;;;;;5022832;28;20065;-58
2022/03/18 08:58:39;;;;;;;42.33;15.18;;;6.90;99.90;;;;;;5022934;28;20064;-59
2022/03/18 09:01:11;;;;;;;39.35;12.98;;;7.00;99.90;;;;;;5029559;28;20057;-58
2022/03/18 09:03:39;;;;;;;39.38;12.27;;;7.20;99.90;;;;;;5030965;28;20049;-58
2022/03/18 09:06:07;;;;;;;38.60;10.88;;;7.30;99.90;;;;;;5030858;28;20060;-57
2022/03/18 09:08:35;;;;;;;32.45;10.60;;;7.50;99.90;;;;;;4996536;28;20057;-58
2022/03/18 09:11:02;;;;;;;26.27;9.77;;;7.70;99.90;;;;;;5029850;28;20053;-58
2022/03/18 09:13:33;;;;;;;27.42;9.20;;;7.90;99.90;;;;;;5013265;28;20065;-58
2022/03/18 09:16:02;;;;;;;22.73;8.90;;;8.10;99.90;;;;;;5031022;28;20053;-57
2022/03/18 09:18:50;;;;;;;31.85;8.77;;;8.20;99.90;;;;;;5029565;28;20052;-58
2022/03/18 09:21:18;;;;;;;26.33;8.65;;;8.40;99.90;;;;;;5027087;28;20076;-58
2022/03/18 09:23:45;;;;;;;29.10;9.20;;;8.60;99.90;;;;;;5026671;28;20049;-56
2022/03/18 09:26:13;;;;;;;30.10;8.43;;;8.80;99.90;;;;;;5020782;28;20042;-57
2022/03/18 09:28:40;;;;;;;22.10;6.63;;;8.90;99.90;;;;;;5020429;28;20041;-57
2022/03/18 09:31:08;;;;;;;29.98;6.93;;;9.10;99.90;;;;;;5029512;28;20049;-56
2022/03/18 09:33:36;;;;;;;16.40;6.00;;;9.20;99.90;;;;;;5029902;28;20057;-57
2022/03/18 09:36:04;;;;;;;22.77;7.50;;;9.40;99.90;;;;;;5027546;28;20042;-57
2022/03/18 09:38:32;;;;;;;22.92;7.25;;;9.50;99.90;;;;;;5028691;28;20053;-56
2022/03/18 09:40:59;;;;;;;25.63;5.90;;;9.70;99.90;;;;;;5024496;28;20849;-58
2022/03/18 09:43:34;;;;;;;22.17;5.50;;;9.90;99.90;;;;;;5022782;28;20056;-56
2022/03/18 09:46:07;;;;;;;19.45;4.63;;;10.00;99.90;;;;;;5015909;28;20042;-58
2022/03/18 09:48:55;;;;;;;17.90;4.80;;;10.20;99.90;;;;;;5025862;28;20041;-59
2022/03/18 09:51:23;;;;;;;11.38;3.53;;;10.40;99.90;;;;;;5030029;28;20037;-59
2022/03/18 09:54:26;;;;;;;26.40;4.90;;;10.50;99.90;;;;;;5020960;28;20041;-58
2022/03/18 09:56:54;;;;;;;19.98;4.57;;;10.60;99.90;;;;;;5026477;28;20045;-58
2022/03/18 09:59:24;;;;;;;15.45;3.88;;;10.70;99.90;;;;;;5009908;28;20049;-59
2022/03/18 10:02:30;;;;;;;12.73;3.80;;;10.90;99.90;;;;;;5016018;28;20041;-59
2022/03/18 10:05:00;;;;;;;18.65;4.25;;;10.90;99.90;;;;;;5013637;28;20045;-57
2022/03/18 10:07:29;;;;;;;26.77;4.68;;;11.10;99.90;;;;;;5027384;28;20512;-57
2022/03/18 10:10:05;;;;;;;13.13;3.50;;;11.20;99.90;;;;;;5027914;28;20052;-57
2022/03/18 10:12:34;;;;;;;19.02;3.35;;;11.40;99.90;;;;;;5009988;28;20072;-58
2022/03/18 10:15:19;;;;;;;20.15;3.60;;;11.50;99.90;;;;;;5022984;28;20514;-58
2022/03/18 10:17:54;;;;;;;18.80;4.35;;;11.60;99.90;;;;;;5016831;28;20053;-58
2022/03/18 10:20:40;;;;;;;19.17;4.15;;;11.70;99.90;;;;;;5027233;28;20049;-58
2022/03/18 10:23:19;;;;;;;17.58;4.85;;;11.70;99.90;;;;;;5005420;28;20062;-59
2022/03/18 10:25:53;;;;;;;14.45;3.92;;;11.80;99.90;;;;;;5007383;28;20057;-58
2022/03/18 10:28:38;;;;;;;14.63;5.03;;;11.80;99.90;;;;;;5024200;28;20037;-59
2022/03/18 10:31:18;;;;;;;16.63;4.57;;;11.90;99.90;;;;;;5006291;28;20049;-58
2022/03/18 10:37:04;;;;;;;23.63;5.30;;;11.90;99.90;;;;;;5014183;28;20056;-57
2022/03/18 10:39:36;;;;;;;16.83;4.88;;;12.00;99.90;;;;;;5026923;28;20061;-57
2022/03/18 10:42:13;;;;;;;17.55;4.18;;;12.00;99.90;;;;;;5028360;28;20041;-57
2022/03/18 10:44:59;;;;;;;10.95;3.58;;;12.10;99.90;;;;;;5017875;28;20065;-57
2022/03/18 10:47:35;;;;;;;20.58;3.78;;;12.10;99.90;;;;;;5013093;28;20056;-57
2022/03/18 10:50:29;;;;;;;27.33;4.35;;;12.10;99.90;;;;;;5010501;28;20049;-57
2022/03/18 10:52:58;;;;;;;23.90;3.92;;;12.20;99.90;;;;;;5028818;28;20504;-57
2022/03/18 10:55:29;;;;;;;18.08;4.20;;;12.20;99.90;;;;;;5029199;28;20053;-58
2022/03/18 10:58:08;;;;;;;22.70;3.47;;;12.30;99.90;;;;;;5028574;28;20065;-58
2022/03/18 11:00:41;;;;;;;13.75;4.90;;;12.40;99.90;;;;;;5008578;28;20444;-59
2022/03/18 11:03:11;;;;;;;20.17;4.15;;;12.40;99.90;;;;;;5027800;28;20497;-58
2022/03/18 11:05:41;;;;;;;17.00;3.30;;;12.50;99.90;;;;;;5028731;28;20056;-58
2022/03/18 11:08:27;;;;;;;20.92;5.10;;;12.50;99.90;;;;;;5028194;28;20045;-58
2022/03/18 11:11:15;;;;;;;18.63;3.80;;;12.60;99.90;;;;;;5027739;28;20045;-57
2022/03/18 11:13:52;;;;;;;16.80;3.63;;;12.60;99.90;;;;;;5027158;28;20048;-58
2022/03/18 11:16:27;;;;;;;15.80;3.65;;;12.70;99.90;;;;;;5026915;28;20052;-58
2022/03/18 11:18:56;;;;;;;14.93;3.17;;;12.80;99.90;;;;;;5028144;28;20053;-58
2022/03/18 11:21:35;;;;;;;17.27;3.70;;;12.90;99.90;;;;;;5028340;28;20048;-57
2022/03/18 11:24:09;;;;;;;13.23;3.80;;;12.90;99.90;;;;;;5028048;28;20052;-57
2022/03/18 11:26:45;;;;;;;20.98;3.90;;;13.00;99.90;;;;;;5010773;28;20539;-58
2022/03/18 11:29:16;;;;;;;13.95;4.05;;;13.10;99.90;;;;;;5022981;28;20046;-58
2022/03/18 11:32:09;;;;;;;18.10;3.33;;;13.20;99.90;;;;;;5009940;28;20052;-57
2022/03/18 11:34:56;;;;;;;11.48;3.28;;;13.30;99.90;;;;;;5024553;28;20049;-58
2022/03/18 11:37:28;;;;;;;17.92;4.65;;;13.40;99.90;;;;;;5023828;28;20041;-57
2022/03/18 11:40:27;;;;;;;20.75;4.45;;;13.50;99.90;;;;;;5010526;28;20527;-57
2022/03/18 11:42:55;;;;;;;16.60;5.35;;;13.70;99.90;;;;;;5023991;28;20045;-57
2022/03/18 11:45:34;;;;;;;14.40;5.30;;;13.80;99.90;;;;;;5020340;28;20049;-58
2022/03/18 11:48:34;;;;;;;17.95;4.50;;;13.90;99.90;;;;;;5028322;28;20061;-58
2022/03/18 11:51:23;;;;;;;21.50;4.47;;;14.10;99.90;;;;;;5031854;28;20377;-58
2022/03/18 11:54:05;;;;;;;21.58;5.03;;;14.30;99.90;;;;;;5031837;28;20045;-57
2022/03/18 11:56:39;;;;;;;23.02;5.38;;;14.50;99.90;;;;;;5031954;28;20501;-58
2022/03/18 11:59:25;;;;;;;24.50;5.28;;;14.70;99.90;;;;;;5014326;28;20512;-57
2022/03/18 12:02:04;;;;;;;13.50;4.78;;;14.90;99.90;;;;;;5025796;28;20428;-57
2022/03/18 12:04:39;;;;;;;17.52;4.75;;;15.10;99.90;;;;;;5013998;28;20057;-57
2022/03/18 12:07:19;;;;;;;19.60;4.45;;;15.30;99.90;;;;;;5031642;28;20033;-59
2022/03/18 12:10:07;;;;;;;17.75;4.40;;;15.50;99.90;;;;;;5016570;28;20045;-57
2022/03/18 12:12:39;;;;;;;18.58;4.57;;;15.70;99.90;;;;;;5031492;28;20398;-58
2022/03/18 12:15:15;;;;;;;24.83;6.07;;;15.80;99.90;;;;;;5022406;28;20046;-58
2022/03/18 12:17:48;;;;;;;16.55;3.92;;;15.90;99.90;;;;;;5027473;28;20053;-58
2022/03/18 12:20:18;;;;;;;19.52;4.15;;;16.00;99.90;;;;;;5030696;28;20171;-57
2022/03/18 12:22:47;;;;;;;20.48;4.90;;;16.20;99.90;;;;;;5031519;28;20420;-57
2022/03/18 12:25:14;;;;;;;16.92;4.15;;;16.30;99.90;;;;;;5013989;28;20052;-59
2022/03/18 12:27:44;;;;;;;18.80;4.57;;;16.50;99.90;;;;;;5030959;28;20038;-59
2022/03/18 12:30:17;;;;;;;12.35;3.90;;;16.80;99.90;;;;;;5009526;28;20485;-59
2022/03/18 12:32:54;;;;;;;20.35;3.95;;;16.90;99.90;;;;;;5031153;28;20481;-58
2022/03/18 12:35:28;;;;;;;18.05;4.43;;;17.20;99.90;;;;;;5024474;28;20061;-59
2022/03/18 12:38:13;;;;;;;20.85;4.18;;;17.40;99.90;;;;;;5030421;28;20037;-58
2022/03/18 12:40:43;;;;;;;16.48;4.38;;;17.50;99.90;;;;;;5030426;28;20543;-59
2022/03/18 12:43:14;;;;;;;23.05;5.18;;;17.60;99.90;;;;;;5030821;28;20048;-59
2022/03/18 12:45:44;;;;;;;17.55;4.13;;;17.70;99.90;;;;;;5019980;28;20050;-59
2022/03/18 12:48:17;;;;;;;17.63;4.38;;;17.80;99.20;;;;;;5028421;28;20049;-59
2022/03/18 12:50:48;;;;;;;13.77;3.13;;;18.00;99.70;;;;;;5030645;28;20397;-59
2022/03/18 12:53:16;;;;;;;16.67;3.47;;;18.20;98.00;;;;;;5030951;28;20401;-59
2022/03/18 12:55:46;;;;;;;15.35;3.25;;;18.30;94.80;;;;;;5030579;28;20049;-58
2022/03/18 12:58:28;;;;;;;14.98;3.30;;;18.30;92.90;;;;;;5015182;28;20041;-58
2022/03/18 13:00:59;;;;;;;12.63;3.58;;;18.40;94.50;;;;;;4999983;28;20066;-58
2022/03/18 13:03:31;;;;;;;13.88;3.45;;;18.70;92.60;;;;;;5030579;28;20053;-58
2022/03/18 13:06:07;;;;;;;10.48;3.15;;;18.80;90.30;;;;;;5030336;28;20041;-58
2022/03/18 13:08:36;;;;;;;12.32;3.17;;;18.80;85.90;;;;;;5019934;28;20060;-61
2022/03/18 13:11:05;;;;;;;20.15;4.75;;;18.80;86.30;;;;;;5030515;28;20053;-59